Time;durP1;ratioP1;P1;durP2;ratioP2;P2;SDS_P1;SDS_P2;PMS_P1;PMS_P2;Temp;Humidity;BMP_temperature;BMP_pressure;BME280_temperature;BME280_humidity;BME280_pressure;Samples;Min_cycle;Max_cycle;Signal;HPM_P1;HPM_P2
2021/12/02 00:02:09;;;;;;;;;;;;;;;5.54;83.98;99167.19;4992528;27;19945;-81
2021/12/02 00:04:36;;;;;;;;;;;;;;;5.46;83.54;99164.50;4997258;27;19919;-79
2021/12/02 00:07:02;;;;;;;;;;;;;;;5.41;84.28;99164.91;4989181;27;20305;-80
2021/12/02 00:09:29;;;;;;;;;;;;;;;5.47;84.19;99161.72;4986863;27;20256;-80
2021/12/02 00:11:54;;;;;;;;;;;;;;;5.47;84.13;99163.50;5014701;27;19903;-80
2021/12/02 00:14:24;;;;;;;;;;;;;;;5.37;84.11;99163.53;5020713;27;20141;-80
2021/12/02 00:22:09;;;;;;;;;;;;;;;5.38;84.53;99154.69;4980061;27;20394;-80
2021/12/02 00:24:34;;;;;;;;;;;;;;;5.45;84.06;99162.84;4988427;28;19908;-82
2021/12/02 00:27:00;;;;;;;;;;;;;;;5.38;84.32;99162.56;4979893;28;19919;-81
2021/12/02 00:29:25;;;;;;;;;;;;;;;5.39;84.51;99166.84;4989169;28;19912;-80
2021/12/02 00:31:51;;;;;;;;;;;;;;;5.48;84.21;99165.97;4989462;28;19912;-81
2021/12/02 00:34:16;;;;;;;;;;;;;;;5.45;83.94;99168.91;4997474;28;20103;-81
2021/12/02 00:36:42;;;;;;;;;;;;;;;5.49;84.97;99170.25;4995574;28;19934;-79
2021/12/02 00:39:11;;;;;;;;;;;;;;;5.43;84.76;99170.84;4998254;28;20778;-81
2021/12/02 00:41:37;;;;;;;;;;;;;;;5.34;85.35;99179.56;4996455;28;20219;-80
2021/12/02 00:44:02;;;;;;;;;;;;;;;5.39;85.30;99166.03;4997498;28;20667;-79
2021/12/02 00:46:31;;;;;;;;;;;;;;;5.48;85.18;99168.59;4993650;27;20247;-80
2021/12/02 00:48:57;;;;;;;;;;;;;;;5.55;83.81;99176.75;4999923;27;20119;-80
2021/12/02 00:51:24;;;;;;;;;;;;;;;5.39;84.42;99172.09;4984791;27;19918;-81
2021/12/02 00:53:52;;;;;;;;;;;;;;;5.37;84.94;99174.03;5001497;27;19918;-80
2021/12/02 00:56:17;;;;;;;;;;;;;;;5.34;85.11;99174.31;4965994;27;20677;-80
2021/12/02 00:58:46;;;;;;;;;;;;;;;5.38;85.24;99172.25;4978447;27;19908;-81
2021/12/02 01:01:11;;;;;;;;;;;;;;;5.39;85.63;99172.09;4961713;27;20217;-82
2021/12/02 01:03:37;;;;;;;;;;;;;;;5.41;85.18;99179.81;4976473;27;19952;-80
2021/12/02 01:06:03;;;;;;;;;;;;;;;5.45;85.41;99175.94;4977056;27;20493;-81
2021/12/02 01:08:29;;;;;;;;;;;;;;;5.42;85.23;99171.81;4992999;27;19970;-80
2021/12/02 01:10:54;;;;;;;;;;;;;;;5.41;85.04;99169.34;4973000;27;20054;-80
2021/12/02 01:13:20;;;;;;;;;;;;;;;5.44;84.97;99175.13;4982089;27;20301;-80
2021/12/02 01:15:45;;;;;;;;;;;;;;;5.41;85.22;99180.63;4961048;27;20513;-79
2021/12/02 01:18:10;;;;;;;;;;;;;;;5.39;84.80;99168.66;4983473;27;19912;-80
2021/12/02 01:20:35;;;;;;;;;;;;;;;5.38;85.58;99186.19;4976961;27;20370;-81
2021/12/02 01:23:01;;;;;;;;;;;;;;;5.24;86.21;99182.19;4956547;28;20622;-79
2021/12/02 01:25:27;;;;;;;;;;;;;;;5.37;85.38;99188.94;4957297;28;19904;-80
2021/12/02 01:27:52;;;;;;;;;;;;;;;5.36;85.94;99182.88;4981221;27;19937;-79
2021/12/02 01:30:17;;;;;;;;;;;;;;;5.32;86.15;99194.63;5009478;27;19967;-80
2021/12/02 01:32:43;;;;;;;;;;;;;;;5.31;86.25;99192.97;4966526;27;19915;-80
2021/12/02 01:35:08;;;;;;;;;;;;;;;5.30;86.23;99193.91;4961350;27;20690;-79
2021/12/02 01:37:33;;;;;;;;;;;;;;;5.37;86.46;99183.69;4965223;27;19903;-79
2021/12/02 01:39:58;;;;;;;;;;;;;;;5.46;85.64;99178.44;4961298;27;20037;-79
2021/12/02 01:42:25;;;;;;;;;;;;;;;5.35;85.92;99186.47;4962705;27;20203;-80
2021/12/02 01:44:51;;;;;;;;;;;;;;;5.38;86.40;99190.59;4948693;28;20108;-79
2021/12/02 01:47:16;;;;;;;;;;;;;;;5.39;86.54;99194.88;4941593;28;20343;-79
2021/12/02 01:49:42;;;;;;;;;;;;;;;5.39;86.49;99194.88;4922060;28;20099;-79
2021/12/02 01:52:41;;;;;;;;;;;;;;;5.40;86.12;99186.88;4933022;28;20261;-79
2021/12/02 01:55:10;;;;;;;;;;;;;;;5.42;86.74;99186.72;4955997;28;20877;-79
2021/12/02 01:57:37;;;;;;;;;;;;;;;5.36;85.52;99187.28;4952029;28;20291;-80
2021/12/02 02:00:05;;;;;;;;;;;;;;;5.31;86.26;99191.16;4958476;28;19904;-80
2021/12/02 02:02:30;;;;;;;;;;;;;;;5.35;86.53;99185.66;4963791;28;20140;-79
2021/12/02 02:04:57;;;;;;;;;;;;;;;5.37;86.23;99178.44;4960597;28;20125;-79
2021/12/02 02:07:22;;;;;;;;;;;;;;;5.32;85.69;99184.13;4951806;28;20299;-79
2021/12/02 02:09:47;;;;;;;;;;;;;;;5.41;85.55;99188.50;4922123;28;20418;-79
2021/12/02 02:12:12;;;;;;;;;;;;;;;5.43;85.15;99193.59;4920018;28;19968;-80
2021/12/02 02:14:38;;;;;;;;;;;;;;;5.36;85.54;99195.16;4922338;28;19986;-79
2021/12/02 02:17:12;;;;;;;;;;;;;;;5.43;85.24;99199.72;4940239;28;20458;-79
2021/12/02 02:19:38;;;;;;;;;;;;;;;5.38;85.76;99201.91;4920795;28;20517;-80
2021/12/02 02:22:04;;;;;;;;;;;;;;;5.26;85.55;99201.25;4921389;28;20311;-79
2021/12/02 02:24:30;;;;;;;;;;;;;;;5.30;85.85;99188.69;4959532;28;20059;-81
2021/12/02 02:26:56;;;;;;;;;;;;;;;5.33;86.12;99193.66;4958676;28;20346;-80
2021/12/02 02:29:22;;;;;;;;;;;;;;;5.30;86.67;99188.69;4960466;28;19949;-79
2021/12/02 02:31:48;;;;;;;;;;;;;;;5.28;85.40;99180.13;4947650;28;20008;-80
2021/12/02 02:34:13;;;;;;;;;;;;;;;5.11;85.94;99182.50;4968139;28;20123;-79
2021/12/02 02:36:40;;;;;;;;;;;;;;;5.33;86.04;99183.16;4957805;28;20380;-79
2021/12/02 02:39:06;;;;;;;;;;;;;;;5.25;85.69;99183.88;4939685;28;19931;-80
2021/12/02 02:41:34;;;;;;;;;;;;;;;5.22;86.56;99176.28;4935316;28;19968;-79
2021/12/02 02:44:00;;;;;;;;;;;;;;;5.15;86.27;99186.50;4931876;28;20470;-79
2021/12/02 02:46:26;;;;;;;;;;;;;;;5.21;84.82;99179.88;4936022;28;20166;-80
2021/12/02 02:48:52;;;;;;;;;;;;;;;5.14;85.25;99178.78;4934550;28;20285;-80
2021/12/02 02:51:17;;;;;;;;;;;;;;;5.24;85.14;99176.13;4931347;28;20213;-80
2021/12/02 02:53:42;;;;;;;;;;;;;;;5.18;84.72;99176.72;4942249;28;20196;-78
2021/12/02 02:56:12;;;;;;;;;;;;;;;5.13;85.72;99177.97;4942454;28;20480;-80
2021/12/02 03:01:34;;;;;;;;;;;;;;;5.23;83.65;99180.56;4969863;28;20262;-80
2021/12/02 03:06:45;;;;;;;;;;;;;;;5.15;83.71;99180.44;4958194;28;19926;-80
2021/12/02 03:09:19;;;;;;;;;;;;;;;5.12;84.44;99176.28;4932390;28;20316;-79
2021/12/02 03:11:49;;;;;;;;;;;;;;;5.16;83.35;99188.16;4923855;28;20174;-80
2021/12/02 03:14:17;;;;;;;;;;;;;;;5.18;83.48;99181.97;4913919;28;20683;-80
2021/12/02 03:16:46;;;;;;;;;;;;;;;5.16;82.73;99188.16;4915747;28;20399;-79
2021/12/02 03:19:15;;;;;;;;;;;;;;;5.06;82.81;99183.88;4914536;28;20326;-79
2021/12/02 03:21:41;;;;;;;;;;;;;;;5.09;83.26;99189.69;4912569;28;20801;-79
2021/12/02 03:24:06;;;;;;;;;;;;;;;5.00;83.63;99182.66;4932841;28;19912;-79
2021/12/02 03:26:32;;;;;;;;;;;;;;;4.99;84.42;99183.63;4920189;28;20025;-81
2021/12/02 03:28:57;;;;;;;;;;;;;;;4.96;83.35;99182.13;4922710;28;19909;-80
2021/12/02 03:31:22;;;;;;;;;;;;;;;4.95;84.09;99187.47;4946132;28;20988;-79
2021/12/02 03:33:48;;;;;;;;;;;;;;;4.95;84.29;99184.84;4959045;28;20095;-79
2021/12/02 03:36:13;;;;;;;;;;;;;;;4.96;83.55;99194.38;4951180;28;20189;-79
2021/12/02 03:38:39;;;;;;;;;;;;;;;5.02;83.25;99190.38;4958818;28;19911;-79
2021/12/02 03:41:04;;;;;;;;;;;;;;;4.91;84.10;99189.56;4961921;28;19904;-79
2021/12/02 03:43:36;;;;;;;;;;;;;;;4.86;83.16;99196.19;4952518;28;19928;-79
2021/12/02 03:46:01;;;;;;;;;;;;;;;4.96;83.73;99187.38;4940216;28;19973;-79
2021/12/02 03:48:27;;;;;;;;;;;;;;;4.97;83.32;99188.19;4952598;28;20305;-79
2021/12/02 03:50:53;;;;;;;;;;;;;;;4.90;82.28;99189.72;4953319;28;20045;-80
2021/12/02 03:53:19;;;;;;;;;;;;;;;5.08;80.96;99187.22;4932193;28;20274;-80
2021/12/02 03:55:44;;;;;;;;;;;;;;;4.94;81.77;99193.72;4946230;28;19959;-80
2021/12/02 03:58:09;;;;;;;;;;;;;;;4.82;82.86;99199.09;4932205;28;20013;-80
2021/12/02 04:00:34;;;;;;;;;;;;;;;4.87;82.64;99182.94;4928849;28;19909;-80
2021/12/02 04:02:59;;;;;;;;;;;;;;;4.90;82.31;99184.47;4953982;28;19931;-79
2021/12/02 04:05:25;;;;;;;;;;;;;;;4.76;82.99;99197.00;4946916;28;20042;-80
2021/12/02 04:07:50;;;;;;;;;;;;;;;4.85;82.64;99195.38;4952613;28;20621;-80
2021/12/02 04:10:16;;;;;;;;;;;;;;;4.89;82.98;99191.47;4933728;28;19919;-79
2021/12/02 04:15:50;;;;;;;;;;;;;;;4.93;82.28;99194.66;4929997;28;19908;-79
2021/12/02 04:18:15;;;;;;;;;;;;;;;4.87;81.66;99205.72;4943874;28;20345;-79
2021/12/02 04:20:40;;;;;;;;;;;;;;;4.88;81.56;99189.00;4951392;28;20649;-80
2021/12/02 04:23:06;;;;;;;;;;;;;;;4.90;81.22;99184.47;4956029;28;20395;-80
2021/12/02 04:25:31;;;;;;;;;;;;;;;4.84;81.50;99209.44;4926775;28;20399;-81
2021/12/02 04:27:56;;;;;;;;;;;;;;;4.77;81.59;99203.91;4957161;28;19935;-81
2021/12/02 04:30:23;;;;;;;;;;;;;;;4.74;82.25;99201.56;4948301;28;20183;-82
2021/12/02 04:32:48;;;;;;;;;;;;;;;4.70;82.16;99208.03;4966737;28;19904;-79
2021/12/02 04:35:14;;;;;;;;;;;;;;;4.86;81.26;99207.50;4963264;28;20133;-79
2021/12/02 04:37:39;;;;;;;;;;;;;;;4.69;81.78;99201.13;4965865;28;19952;-80
2021/12/02 04:40:05;;;;;;;;;;;;;;;4.66;82.68;99206.66;4959955;28;19938;-81
2021/12/02 04:42:30;;;;;;;;;;;;;;;4.71;82.73;99204.47;4982622;28;19908;-80
2021/12/02 04:44:55;;;;;;;;;;;;;;;4.79;81.86;99207.22;4976119;28;20235;-79
2021/12/02 04:47:21;;;;;;;;;;;;;;;4.82;81.76;99211.34;4966147;28;19917;-81
2021/12/02 04:49:46;;;;;;;;;;;;;;;4.87;81.29;99213.56;4960911;28;20161;-81
2021/12/02 04:52:11;;;;;;;;;;;;;;;4.85;80.73;99220.72;4957099;28;20656;-82
2021/12/02 04:54:36;;;;;;;;;;;;;;;4.84;80.20;99219.91;4957849;28;20313;-80
2021/12/02 04:57:02;;;;;;;;;;;;;;;4.79;79.97;99219.50;4953187;28;20788;-79
2021/12/02 04:59:27;;;;;;;;;;;;;;;4.74;79.94;99219.91;4936907;28;19915;-80
2021/12/02 05:01:52;;;;;;;;;;;;;;;4.66;79.63;99217.13;4952197;28;19915;-79
2021/12/02 05:04:18;;;;;;;;;;;;;;;4.64;80.23;99216.47;4956097;28;20066;-81
2021/12/02 05:06:43;;;;;;;;;;;;;;;4.60;81.00;99222.94;4954872;28;20226;-81
2021/12/02 05:09:08;;;;;;;;;;;;;;;4.60;80.47;99210.66;4955949;28;20302;-81
2021/12/02 05:11:34;;;;;;;;;;;;;;;4.60;80.82;99213.28;4954489;28;20478;-78
2021/12/02 05:13:59;;;;;;;;;;;;;;;4.62;81.02;99218.38;4950967;28;19931;-78
2021/12/02 05:16:24;;;;;;;;;;;;;;;4.72;80.41;99218.38;4935881;28;19965;-80
2021/12/02 05:18:50;;;;;;;;;;;;;;;4.57;81.52;99218.78;4951914;28;20698;-80
2021/12/02 05:21:16;;;;;;;;;;;;;;;4.60;82.71;99221.13;4940983;28;20243;-79
2021/12/02 05:23:41;;;;;;;;;;;;;;;4.60;83.03;99221.13;4943364;28;20394;-80
2021/12/02 05:26:06;;;;;;;;;;;;;;;4.59;82.30;99216.03;4932216;28;20197;-78
2021/12/02 05:28:32;;;;;;;;;;;;;;;4.68;82.50;99214.38;4929024;28;19970;-79
2021/12/02 05:30:57;;;;;;;;;;;;;;;4.69;81.57;99211.63;4956102;28;19908;-79
2021/12/02 05:33:22;;;;;;;;;;;;;;;4.57;82.11;99217.94;4976758;28;20335;-78
2021/12/02 05:35:47;;;;;;;;;;;;;;;4.61;82.06;99208.84;4966813;28;20209;-78
2021/12/02 05:38:13;;;;;;;;;;;;;;;4.50;82.52;99216.84;4950560;28;19900;-77
2021/12/02 05:40:38;;;;;;;;;;;;;;;4.47;82.92;99207.47;4964975;28;20194;-78
2021/12/02 05:43:03;;;;;;;;;;;;;;;4.43;82.68;99212.16;4953504;28;20282;-77
2021/12/02 05:45:28;;;;;;;;;;;;;;;4.50;82.52;99222.91;4919628;28;19900;-77
2021/12/02 05:47:53;;;;;;;;;;;;;;;4.37;81.96;99207.47;4971364;28;20048;-77
2021/12/02 05:50:19;;;;;;;;;;;;;;;4.43;82.27;99213.94;4961524;28;19904;-78
2021/12/02 05:52:44;;;;;;;;;;;;;;;4.41;82.36;99206.22;4965617;28;20294;-79
2021/12/02 05:55:09;;;;;;;;;;;;;;;4.36;82.78;99210.19;4957278;28;20741;-78
2021/12/02 05:57:34;;;;;;;;;;;;;;;4.43;82.11;99221.81;4954994;28;21277;-78
2021/12/02 06:00:00;;;;;;;;;;;;;;;4.56;81.45;99211.06;4956608;28;20392;-78
2021/12/02 06:02:26;;;;;;;;;;;;;;;4.43;82.40;99211.34;4953760;28;20197;-77
2021/12/02 06:04:52;;;;;;;;;;;;;;;4.26;83.03;99218.06;4954953;28;20149;-80
2021/12/02 06:07:18;;;;;;;;;;;;;;;4.33;82.49;99218.31;4951993;28;19950;-79
2021/12/02 06:09:43;;;;;;;;;;;;;;;4.34;80.80;99218.19;4955756;28;20563;-78
2021/12/02 06:12:09;;;;;;;;;;;;;;;4.40;80.45;99217.66;4975773;28;20033;-78
2021/12/02 06:14:34;;;;;;;;;;;;;;;4.36;80.22;99221.50;4955807;28;20106;-79
2021/12/02 06:16:59;;;;;;;;;;;;;;;4.34;80.42;99218.19;4954906;28;19961;-80
2021/12/02 06:19:24;;;;;;;;;;;;;;;4.51;79.42;99219.31;4955289;28;19912;-80
2021/12/02 06:21:51;;;;;;;;;;;;;;;4.24;79.12;99220.78;4938921;28;20255;-79
2021/12/02 06:24:16;;;;;;;;;;;;;;;4.29;80.34;99246.59;4960209;28;19919;-79
2021/12/02 06:26:41;;;;;;;;;;;;;;;4.28;80.35;99244.91;4938854;28;20298;-79
2021/12/02 06:29:06;;;;;;;;;;;;;;;4.27;81.16;99244.09;4949415;28;19946;-79
2021/12/02 06:31:32;;;;;;;;;;;;;;;4.38;81.00;99243.13;4951027;28;20124;-79
2021/12/02 06:33:57;;;;;;;;;;;;;;;4.53;80.95;99246.22;4967854;28;20008;-79
2021/12/02 06:36:22;;;;;;;;;;;;;;;4.41;80.58;99245.50;4981468;28;19949;-79
2021/12/02 06:38:47;;;;;;;;;;;;;;;4.42;81.09;99249.78;4951423;28;19912;-78
2021/12/02 06:41:13;;;;;;;;;;;;;;;4.35;81.33;99250.44;4961317;28;20345;-80
2021/12/02 06:43:38;;;;;;;;;;;;;;;4.52;80.33;99255.03;4969447;28;20250;-77
2021/12/02 06:46:03;;;;;;;;;;;;;;;4.39;79.65;99263.13;4991254;28;20256;-78
2021/12/02 06:48:29;;;;;;;;;;;;;;;4.38;80.92;99266.72;4991321;28;20701;-79
2021/12/02 06:50:54;;;;;;;;;;;;;;;4.27;81.44;99264.19;4963993;28;20013;-80
2021/12/02 06:53:19;;;;;;;;;;;;;;;4.50;79.99;99264.84;4984045;28;19905;-80
2021/12/02 06:55:44;;;;;;;;;;;;;;;4.44;80.09;99267.97;4961432;27;19904;-80
2021/12/02 06:58:10;;;;;;;;;;;;;;;4.28;79.93;99276.34;4980987;27;20672;-80
2021/12/02 07:00:35;;;;;;;;;;;;;;;4.28;79.26;99276.34;4992473;27;20352;-80
2021/12/02 07:03:01;;;;;;;;;;;;;;;4.14;79.79;99274.91;5000858;27;20475;-80
2021/12/02 07:05:29;;;;;;;;;;;;;;;4.09;79.64;99277.94;5009499;27;20353;-81
2021/12/02 07:07:54;;;;;;;;;;;;;;;4.16;79.37;99277.38;5007210;27;20349;-78
2021/12/02 07:10:22;;;;;;;;;;;;;;;4.10;79.90;99284.81;5005122;27;20477;-78
2021/12/02 07:12:50;;;;;;;;;;;;;;;4.20;79.61;99282.25;4990426;27;19904;-78
2021/12/02 07:15:17;;;;;;;;;;;;;;;4.09;79.48;99285.78;4992966;27;19915;-78
2021/12/02 07:17:44;;;;;;;;;;;;;;;4.16;80.16;99288.72;4991686;27;20040;-78
2021/12/02 07:20:09;;;;;;;;;;;;;;;4.21;79.33;99294.34;5009269;27;19956;-78
2021/12/02 07:22:34;;;;;;;;;;;;;;;4.09;79.29;99288.41;5000052;27;20059;-78
2021/12/02 07:25:00;;;;;;;;;;;;;;;4.13;79.73;99295.03;4946144;28;20330;-78
2021/12/02 07:27:25;;;;;;;;;;;;;;;4.07;79.79;99299.94;4943577;28;20392;-78
2021/12/02 07:29:50;;;;;;;;;;;;;;;4.05;80.49;99307.94;4967242;28;20289;-78
2021/12/02 07:32:16;;;;;;;;;;;;;;;4.00;80.10;99297.03;4966655;28;19908;-81
2021/12/02 07:34:44;;;;;;;;;;;;;;;4.05;80.34;99315.78;4969548;28;20103;-76
2021/12/02 07:37:13;;;;;;;;;;;;;;;4.07;80.45;99319.09;5000784;27;20868;-78
2021/12/02 07:39:38;;;;;;;;;;;;;;;3.98;80.47;99317.28;5008291;27;19912;-77
2021/12/02 07:42:04;;;;;;;;;;;;;;;3.97;80.91;99320.84;4988563;28;20227;-77
2021/12/02 07:44:29;;;;;;;;;;;;;;;3.92;81.29;99323.84;4986684;28;20918;-76
2021/12/02 07:46:56;;;;;;;;;;;;;;;3.93;81.10;99324.66;4988408;27;20045;-76
2021/12/02 07:49:21;;;;;;;;;;;;;;;3.87;81.90;99333.06;5005995;27;19943;-77
2021/12/02 07:51:46;;;;;;;;;;;;;;;3.90;81.71;99338.84;4986083;28;19923;-77
2021/12/02 07:54:12;;;;;;;;;;;;;;;3.87;81.05;99333.06;4985232;28;20706;-77
2021/12/02 07:56:38;;;;;;;;;;;;;;;3.90;81.86;99341.47;4998177;27;20269;-76
2021/12/02 07:59:03;;;;;;;;;;;;;;;4.03;81.53;99341.25;5005344;27;20117;-77
2021/12/02 08:01:28;;;;;;;;;;;;;;;3.96;81.50;99342.72;4999570;28;19911;-76
2021/12/02 08:03:54;;;;;;;;;;;;;;;3.81;81.50;99347.47;4968543;28;19907;-76
2021/12/02 08:06:19;;;;;;;;;;;;;;;3.92;81.90;99346.56;4995615;27;19908;-76
2021/12/02 08:08:45;;;;;;;;;;;;;;;3.82;82.84;99350.91;4997603;28;19912;-76
2021/12/02 08:11:11;;;;;;;;;;;;;;;3.66;84.00;99357.41;4988862;28;20107;-77
2021/12/02 08:13:36;;;;;;;;;;;;;;;3.67;84.31;99366.94;5007444;27;20845;-77
2021/12/02 08:16:02;;;;;;;;;;;;;;;3.73;84.59;99358.56;4990476;27;19975;-77
2021/12/02 08:18:28;;;;;;;;;;;;;;;3.74;84.63;99368.09;5008866;27;19908;-78
2021/12/02 08:20:54;;;;;;;;;;;;;;;3.82;84.88;99369.22;5003011;27;19919;-78
2021/12/02 08:23:19;;;;;;;;;;;;;;;3.80;84.25;99382.44;5007587;27;20382;-77
2021/12/02 08:25:44;;;;;;;;;;;;;;;3.88;84.41;99380.03;5012086;27;20320;-77
2021/12/02 08:28:10;;;;;;;;;;;;;;;4.00;83.52;99378.16;5008682;27;19915;-77
2021/12/02 08:30:37;;;;;;;;;;;;;;;3.97;83.19;99388.06;5008194;27;20623;-77
2021/12/02 08:33:03;;;;;;;;;;;;;;;3.98;84.03;99395.78;5007112;27;20336;-76
2021/12/02 08:35:28;;;;;;;;;;;;;;;3.97;83.76;99399.34;5008788;27;20390;-77
2021/12/02 08:37:59;;;;;;;;;;;;;;;4.11;84.87;99396.41;5011647;27;20333;-76
2021/12/02 08:40:31;;;;;;;;;;;;;;;4.07;83.79;99399.44;5008811;27;20241;-77
2021/12/02 08:42:57;;;;;;;;;;;;;;;4.15;82.93;99402.22;5009773;27;20106;-76
2021/12/02 08:45:23;;;;;;;;;;;;;;;4.32;82.14;99413.91;4990585;27;20028;-77
2021/12/02 08:47:48;;;;;;;;;;;;;;;4.20;82.14;99415.78;5008006;27;20351;-77
2021/12/02 08:50:16;;;;;;;;;;;;;;;4.12;81.50;99419.03;5006497;27;20342;-77
2021/12/02 08:52:41;;;;;;;;;;;;;;;4.18;82.08;99415.06;4989269;27;19911;-77
2021/12/02 08:55:07;;;;;;;;;;;;;;;4.23;81.21;99418.13;5007375;27;19908;-77
2021/12/02 08:57:32;;;;;;;;;;;;;;;4.18;80.68;99419.47;4996973;27;20159;-77
2021/12/02 08:59:57;;;;;;;;;;;;;;;4.03;81.39;99429.44;5027122;27;19963;-77
2021/12/02 09:02:22;;;;;;;;;;;;;;;3.97;80.54;99432.56;5002125;27;20357;-78
2021/12/02 09:04:48;;;;;;;;;;;;;;;3.94;80.65;99434.47;4994292;28;20404;-77
2021/12/02 09:07:14;;;;;;;;;;;;;;;4.02;80.53;99428.59;5005767;27;20365;-77
2021/12/02 09:09:40;;;;;;;;;;;;;;;4.04;80.95;99445.00;5008730;27;19908;-78
2021/12/02 09:12:05;;;;;;;;;;;;;;;4.03;80.31;99434.66;4985879;28;20205;-77
2021/12/02 09:14:31;;;;;;;;;;;;;;;4.03;80.49;99443.34;5010088;28;20211;-77
2021/12/02 09:16:56;;;;;;;;;;;;;;;4.09;80.42;99445.47;5005105;28;19912;-78
2021/12/02 09:19:21;;;;;;;;;;;;;;;4.17;79.71;99457.09;5005641;28;19907;-77
2021/12/02 09:21:47;;;;;;;;;;;;;;;4.01;79.63;99455.72;5004048;28;20291;-77
2021/12/02 09:24:12;;;;;;;;;;;;;;;4.11;79.67;99458.41;5005618;27;19918;-77
2021/12/02 09:26:38;;;;;;;;;;;;;;;4.16;80.65;99460.66;4997572;27;20346;-79
2021/12/02 09:29:03;;;;;;;;;;;;;;;4.23;79.67;99462.66;4992401;27;20317;-77
2021/12/02 09:31:29;;;;;;;;;;;;;;;4.22;79.09;99465.41;4986306;28;20253;-78
2021/12/02 09:33:54;;;;;;;;;;;;;;;4.35;78.03;99473.88;4989436;28;20062;-78
2021/12/02 09:36:19;;;;;;;;;;;;;;;4.36;79.16;99475.53;4995660;28;19960;-79
2021/12/02 09:38:45;;;;;;;;;;;;;;;4.43;78.37;99476.69;4989199;28;19908;-79
2021/12/02 09:41:10;;;;;;;;;;;;;;;4.40;78.24;99484.81;4996952;27;20303;-77
2021/12/02 09:43:35;;;;;;;;;;;;;;;4.33;78.22;99475.81;4992804;28;20693;-78
2021/12/02 09:46:00;;;;;;;;;;;;;;;4.43;77.69;99481.94;4987652;28;20253;-77
2021/12/02 09:48:26;;;;;;;;;;;;;;;4.53;77.59;99483.78;4991039;27;19984;-77
2021/12/02 09:51:12;;;;;;;;;;;;;;;4.59;77.12;99488.50;4988525;28;20033;-77
2021/12/02 09:54:00;;;;;;;;;;;;;;;4.45;76.49;99485.22;4996400;27;20238;-78
2021/12/02 09:56:37;;;;;;;;;;;;;;;4.37;76.16;99487.69;5010935;27;20221;-77
2021/12/02 09:59:09;;;;;;;;;;;;;;;4.38;77.55;99488.50;4995913;27;19904;-78
2021/12/02 10:01:48;;;;;;;;;;;;;;;4.36;76.56;99493.03;5009373;27;20745;-77
2021/12/02 10:04:13;;;;;;;;;;;;;;;4.51;76.07;99490.94;4994363;27;20215;-77
2021/12/02 10:06:41;;;;;;;;;;;;;;;4.35;74.53;99497.44;5008951;27;20157;-79
2021/12/02 10:09:11;;;;;;;;;;;;;;;4.16;74.86;99486.84;5010633;27;20413;-79
2021/12/02 10:11:41;;;;;;;;;;;;;;;4.24;75.23;99487.84;5000448;27;19911;-78
2021/12/02 10:14:14;;;;;;;;;;;;;;;4.18;75.48;99495.41;4984653;27;20044;-78
2021/12/02 10:16:43;;;;;;;;;;;;;;;4.30;75.62;99489.97;4990578;27;20000;-78
2021/12/02 10:19:23;;;;;;;;;;;;;;;4.24;76.62;99493.09;5008848;27;20708;-78
2021/12/02 10:21:57;;;;;;;;;;;;;;;4.32;76.23;99486.41;5001424;28;19912;-77
2021/12/02 10:24:24;;;;;;;;;;;;;;;4.39;76.50;99493.63;5009589;28;20210;-77
2021/12/02 10:26:51;;;;;;;;;;;;;;;4.50;77.33;99486.63;4997883;28;19920;-77
2021/12/02 10:29:18;;;;;;;;;;;;;;;4.68;76.34;99486.88;4998086;28;20305;-78
2021/12/02 10:31:47;;;;;;;;;;;;;;;4.79;75.28;99498.13;5028150;27;20217;-78
2021/12/02 10:34:12;;;;;;;;;;;;;;;4.67;74.99;99490.47;4996833;28;20222;-78
2021/12/02 10:36:43;;;;;;;;;;;;;;;4.74;74.35;99494.25;4992519;28;20264;-78
2021/12/02 10:39:08;;;;;;;;;;;;;;;4.97;73.26;99497.50;4989471;28;19924;-79
2021/12/02 10:41:33;;;;;;;;;;;;;;;4.92;71.98;99502.31;5015046;27;20320;-78
2021/12/02 10:44:08;;;;;;;;;;;;;;;4.74;72.75;99496.88;5005312;28;20457;-78
2021/12/02 10:46:34;;;;;;;;;;;;;;;4.68;73.03;99497.38;5025508;28;19904;-78
2021/12/02 10:48:59;;;;;;;;;;;;;;;4.67;72.92;99506.19;4993340;28;20145;-78
2021/12/02 10:51:38;;;;;;;;;;;;;;;4.63;72.39;99510.88;5014471;28;20274;-77
2021/12/02 10:54:04;;;;;;;;;;;;;;;4.82;72.19;99504.88;5025798;28;20100;-78
2021/12/02 10:56:33;;;;;;;;;;;;;;;4.69;72.38;99506.91;4997434;28;20597;-77
2021/12/02 10:59:06;;;;;;;;;;;;;;;4.63;72.58;99495.16;4988452;28;19908;-76
2021/12/02 11:01:39;;;;;;;;;;;;;;;4.73;73.16;99503.88;4988814;28;20704;-77
2021/12/02 11:04:04;;;;;;;;;;;;;;;4.79;73.03;99494.66;4997864;28;19974;-76
2021/12/02 11:06:43;;;;;;;;;;;;;;;4.69;73.75;99494.63;5005114;28;20027;-77
2021/12/02 11:09:24;;;;;;;;;;;;;;;4.59;73.02;99499.81;4989569;28;20529;-77
2021/12/02 11:12:28;;;;;;;;;;;;;;;4.73;73.25;99490.78;4990791;28;20137;-78
2021/12/02 11:14:53;;;;;;;;;;;;;;;4.81;72.89;99490.97;4949430;28;19920;-79
2021/12/02 11:17:19;;;;;;;;;;;;;;;4.79;72.40;99492.91;4946675;28;20249;-79
2021/12/02 11:19:45;;;;;;;;;;;;;;;4.81;72.58;99496.19;4957205;27;19908;-78
2021/12/02 11:22:12;;;;;;;;;;;;;;;4.75;72.80;99496.72;5008185;27;19911;-78
2021/12/02 11:24:37;;;;;;;;;;;;;;;4.85;71.70;99498.56;4998882;27;20107;-78
2021/12/02 11:27:05;;;;;;;;;;;;;;;4.68;72.31;99503.44;5012114;27;20346;-77
2021/12/02 11:29:50;;;;;;;;;;;;;;;4.59;73.08;99509.47;5044832;27;19915;-76
2021/12/02 11:32:45;;;;;;;;;;;;;;;4.52;72.72;99503.06;4975130;28;20186;-77
2021/12/02 11:35:29;;;;;;;;;;;;;;;4.44;72.82;99511.56;4976636;27;19910;-77
2021/12/02 11:38:05;;;;;;;;;;;;;;;4.36;74.07;99506.13;5007970;28;20266;-78
2021/12/02 11:40:31;;;;;;;;;;;;;;;4.47;74.56;99506.91;4993452;27;20408;-76
2021/12/02 11:42:57;;;;;;;;;;;;;;;4.44;74.36;99501.94;4993689;28;19938;-77
2021/12/02 11:45:23;;;;;;;;;;;;;;;4.57;74.01;99501.72;4988089;27;20192;-79
2021/12/02 11:47:48;;;;;;;;;;;;;;;4.74;74.43;99500.31;4991193;27;20393;-77
2021/12/02 11:50:14;;;;;;;;;;;;;;;4.94;71.93;99510.88;5007538;27;20058;-77
2021/12/02 11:52:40;;;;;;;;;;;;;;;4.94;70.40;99503.84;5009588;27;20033;-76
2021/12/02 11:55:06;;;;;;;;;;;;;;;4.96;71.54;99511.56;4993748;27;19904;-77
2021/12/02 11:57:33;;;;;;;;;;;;;;;4.84;71.19;99515.22;4996750;28;20746;-76
2021/12/02 11:59:58;;;;;;;;;;;;;;;4.63;70.57;99526.59;4998026;28;20409;-77
2021/12/02 12:02:24;;;;;;;;;;;;;;;4.52;72.39;99524.03;5002553;27;20189;-76
2021/12/02 12:04:59;;;;;;;;;;;;;;;4.69;71.99;99528.69;5006277;27;20016;-77
2021/12/02 12:07:28;;;;;;;;;;;;;;;4.66;71.73;99534.19;4953135;27;20821;-76
2021/12/02 12:10:10;;;;;;;;;;;;;;;4.59;72.53;99533.03;4926450;28;20733;-76
2021/12/02 12:12:36;;;;;;;;;;;;;;;4.50;73.71;99529.41;4943851;27;20379;-76
2021/12/02 12:15:02;;;;;;;;;;;;;;;4.55;74.36;99532.44;4994439;27;20351;-77
2021/12/02 12:17:27;;;;;;;;;;;;;;;4.44;75.62;99543.84;4995534;27;20278;-77
2021/12/02 12:19:52;;;;;;;;;;;;;;;4.60;75.40;99547.81;5000376;27;20377;-78
2021/12/02 12:22:25;;;;;;;;;;;;;;;4.46;75.82;99541.91;4984282;28;20139;-77
2021/12/02 12:24:51;;;;;;;;;;;;;;;4.44;76.08;99537.75;4996129;28;19916;-78
2021/12/02 12:27:16;;;;;;;;;;;;;;;4.33;76.29;99546.50;5000410;28;19924;-77
2021/12/02 12:29:41;;;;;;;;;;;;;;;4.34;75.67;99548.16;5001873;28;19918;-77
2021/12/02 12:32:12;;;;;;;;;;;;;;;4.60;75.93;99547.81;5001690;28;19945;-77
2021/12/02 12:34:42;;;;;;;;;;;;;;;5.05;74.88;99544.03;5001591;27;20213;-78
2021/12/02 12:37:20;;;;;;;;;;;;;;;4.91;73.26;99550.47;5003779;27;19904;-77
2021/12/02 12:40:03;;;;;;;;;;;;;;;4.77;74.12;99549.84;5004770;27;20024;-78
2021/12/02 12:42:28;;;;;;;;;;;;;;;4.63;74.17;99544.94;5005712;27;20282;-77
2021/12/02 12:44:54;;;;;;;;;;;;;;;4.71;74.49;99550.38;5002531;27;19916;-77
2021/12/02 12:47:20;;;;;;;;;;;;;;;5.05;74.02;99565.00;4984521;28;20333;-77
2021/12/02 12:49:46;;;;;;;;;;;;;;;5.19;72.56;99558.59;4984864;27;20188;-79
2021/12/02 12:52:15;;;;;;;;;;;;;;;5.35;71.58;99558.94;5001904;27;20036;-78
2021/12/02 12:54:40;;;;;;;;;;;;;;;5.99;68.30;99563.00;4990860;27;20331;-78
2021/12/02 12:57:06;;;;;;;;;;;;;;;5.73;67.45;99570.53;5005530;27;20801;-77
2021/12/02 12:59:46;;;;;;;;;;;;;;;5.68;68.38;99573.56;4985505;27;19915;-77
2021/12/02 13:02:13;;;;;;;;;;;;;;;5.52;68.99;99569.78;5000666;27;19916;-77
2021/12/02 13:04:51;;;;;;;;;;;;;;;5.49;68.53;99571.69;5003873;27;20306;-77
2021/12/02 13:07:17;;;;;;;;;;;;;;;5.24;69.03;99572.97;5003633;27;20391;-77
2021/12/02 13:10:15;;;;;;;;;;;;;;;5.16;68.82;99572.78;5001853;27;20243;-76
2021/12/02 13:12:42;;;;;;;;;;;;;;;4.97;68.54;99584.84;4998545;27;20364;-77